Vliegveldwaarnemingen Nederland - (AUTO) METAR

Luchtvaartmeteorologische informatie voor operationeel gebruik en vluchtvoorbereiding is beschikbaar op www.luchtvaartmeteo.nl.

ZCZC
SA241255 EHFS RRA VLISSINGEN AWS   NLD   8 m.
METAR EHFS 241255Z AUTO 11012KT 9999 NCD 26/19 Q1018=

ZCZC
SA241325 EHKD     DE KOOY/DE KOOY   NLD   1 m.
METAR EHKD 241325Z AUTO 15010KT 110V180 9999 NCD 29/18 Q1019
BLU 16008KT CAVOK=

ZCZC
SA241325 EHFD     F3-FB-1   NLD   50 m.
METAR EHFD 241325Z AUTO 17015KT 9999 NSC 21/17 Q1019=

ZCZC
SA241325 EHAM     AMSTERDAM/SCHIPHOL   NLD   -3 m.
METAR EHAM 241325Z 14009KT 110V190 CAVOK 30/19 Q1019 NOSIG=

ZCZC
SA241325 EHVL     VLIELAND   NLD   10 m.
METAR EHVL 241325Z AUTO 15013KT 9999 NCD 26/19 Q1019 BLU=

ZCZC
SA241325 EHJR     K13-A   NLD   37 m.
METAR EHJR 241325Z NIL=

ZCZC
SA241325 EHLW     LEEUWARDEN/LEEUWARDEN   NLD   1 m.
METAR EHLW 241325Z AUTO 18008KT 130V200 9999 NCD 29/18 Q1020
BLU 16009KT CAVOK=

ZCZC
SA241325 EHDL     ARNHEM/DEELEN   NLD   48 m.
METAR EHDL 241325Z AUTO 17008KT 080V230 9999 NCD 31/14 Q1020 BLU=

ZCZC
SA241325 EHGG     GRONINGEN/EELDE   NLD   5 m.
METAR EHGG 241325Z AUTO 17009KT 110V210 9999 NCD 30/15 Q1020 NOSIG=

ZCZC
SA241325 EHSC     LICHTEILAND GOEREE   NLD   22 m.
METAR EHSC 241325Z NIL=

ZCZC
SA241325 EHSA     EURO PLATFORM   NLD   19 m.
METAR EHSA 241325Z NIL=

ZCZC
SA241325 EHWO     WOENSDRECHT/WOENSDRECHT   NLD   19 m.
METAR EHWO 241325Z AUTO VRB05KT 9999 NCD 32/17 Q1019
BLU 15005KT CAVOK=

ZCZC
SA241325 EHRD     ROTTERDAM/THE HAGUE AIRPORT   NLD   -5 m.
METAR EHRD 241325Z AUTO 15009KT 110V180 9999 NSC 31/18 Q1019 NOSIG=

ZCZC
SA241325 EHGR     GILZE-RIJEN/GILZE-RIJEN   NLD   14 m.
METAR EHGR 241325Z AUTO 14008KT 120V230 9999 NCD 31/16 Q1019
BLU 14006KT CAVOK=

ZCZC
SA241325 EHEH RRA EINDHOVEN/EINDHOVEN   NLD   22 m.
METAR EHEH 241325Z AUTO 13004KT 080V250 9999 FEW160 31/17 Q1019
BLU 16005KT CAVOK=

ZCZC
SA241325 EHVK     VOLKEL/VOLKEL   NLD   21 m.
METAR EHVK 241325Z AUTO 16006KT 090V200 9999 NCD 31/16 Q1020
BLU 15006KT CAVOK TEMPO VRB02KT=

ZCZC
SA241325 EHBK     MAASTRICHT/MAASTRICHT-AACHEN   NLD   114 m.
METAR EHBK 241325Z AUTO VRB02KT 9999 NCD 31/17 Q1020 NOSIG=

ZCZC
SA241325 EHFZ     F16-A   NLD   43 m.
METAR EHFZ 241325Z AUTO 19019KT 9999 NCD 20/17 Q1019=

ZCZC
SA241325 EHKV     K14-FA-1C   NLD   41 m.
METAR EHKV 241325Z AUTO 17013KT //// // NSC 21/18 Q1019 RE//=

ZCZC
SA241325 EHMG     L9-FF-1   NLD   44 m.
METAR EHMG 241325Z AUTO 17017KT 9999 NSC 23/17 Q1019=

ZCZC
SA241325 EHMA     AWG-1   NLD   40 m.
METAR EHMA 241325Z AUTO 17014KT 9999 NCD 28/16 Q1020=

ZCZC
SA241325 EHDV     D15-FA-1   NLD   42 m.
METAR EHDV 241325Z AUTO 31004KT 7000 NSC 19/17 Q1019=

ZCZC
SA241325 EHAK     A12-CPP   NLD   48 m.
METAR EHAK 241325Z AUTO 20009KT 170V250 9999 NSC 19/17 Q1019=

ZCZC
SA241325 EHQE     HOORN-A   NLD   50 m.
METAR EHQE 241325Z AUTO 18012KT 9999 NSC 25/17 Q1019=

ZCZC
SA241325 EHJA     J6-A   NLD   45 m.
METAR EHJA 241325Z AUTO 17008KT 9999 NCD 20/17 Q1018=

ZCZC
SA241325 EHPG     P11-B   NLD   41 m.
METAR EHPG 241325Z AUTO 14017KT 9999 NSC 22/18 Q1019=

ZCZC
SA241325 EHHW     BUITENGAATS/BG-OHVS2      42 m.
METAR EHHW 241325Z AUTO 17013KT 110V200 9999 NSC 23/18 Q1020=

24/08/2016 15.30 uur LT